sensor_id;sensor_type;location;lat;lon;timestamp;pressure;altitude;pressure_sealevel;temperature;humidity
38852;BME280;24605;50.092;9.182;2023-12-28T00:02:26;153664.66;;;6.36;83.89
38852;BME280;24605;50.092;9.182;2023-12-28T00:04:52;153716.66;;;6.57;82.77
38852;BME280;24605;50.092;9.182;2023-12-28T00:07:19;153742.66;;;6.67;82.31
38852;BME280;24605;50.092;9.182;2023-12-28T00:09:45;153738.75;;;6.66;81.43
38852;BME280;24605;50.092;9.182;2023-12-28T00:12:11;153766.06;;;6.77;80.98
38852;BME280;24605;50.092;9.182;2023-12-28T00:14:38;153795.97;;;6.88;80.54
38852;BME280;24605;50.092;9.182;2023-12-28T00:17:04;153798.56;;;6.89;80.72
38852;BME280;24605;50.092;9.182;2023-12-28T00:19:32;153794.63;;;6.88;81.47
38852;BME280;24605;50.092;9.182;2023-12-28T00:21:59;153792.09;;;6.87;80.77
38852;BME280;24605;50.092;9.182;2023-12-28T00:24:25;153798.56;;;6.89;80.42
38852;BME280;24605;50.092;9.182;2023-12-28T00:26:52;153833.69;;;7.03;80.69
38852;BME280;24605;50.092;9.182;2023-12-28T00:29:18;153836.28;;;7.04;80.32
38852;BME280;24605;50.092;9.182;2023-12-28T00:31:44;153789.47;;;6.86;80.14
38852;BME280;24605;50.092;9.182;2023-12-28T00:34:11;153855.75;;;7.12;80.18
38852;BME280;24605;50.092;9.182;2023-12-28T00:36:39;153885.66;;;7.24;79.47
38852;BME280;24605;50.092;9.182;2023-12-28T00:39:05;153885.66;;;7.24;79.51
38852;BME280;24605;50.092;9.182;2023-12-28T00:41:31;153893.47;;;7.27;79.60
38852;BME280;24605;50.092;9.182;2023-12-28T00:43:58;153913.00;;;7.35;79.22
38852;BME280;24605;50.092;9.182;2023-12-28T00:46:25;153936.41;;;7.44;78.94
38852;BME280;24605;50.092;9.182;2023-12-28T00:48:52;153922.09;;;7.39;79.51
38852;BME280;24605;50.092;9.182;2023-12-28T00:51:19;153940.28;;;7.46;78.28
38852;BME280;24605;50.092;9.182;2023-12-28T00:53:47;153961.09;;;7.54;77.96
38852;BME280;24605;50.092;9.182;2023-12-28T00:56:14;153965.00;;;7.56;79.59
38852;BME280;24605;50.092;9.182;2023-12-28T00:58:40;153955.88;;;7.52;78.24
38852;BME280;24605;50.092;9.182;2023-12-28T01:01:08;153966.31;;;7.56;79.42
38852;BME280;24605;50.092;9.182;2023-12-28T01:03:35;153944.19;;;7.47;79.46
38852;BME280;24605;50.092;9.182;2023-12-28T01:06:01;153961.09;;;7.54;78.07
38852;BME280;24605;50.092;9.182;2023-12-28T01:08:28;153976.69;;;7.60;78.10
38852;BME280;24605;50.092;9.182;2023-12-28T01:10:56;153937.69;;;7.45;77.82
38852;BME280;24605;50.092;9.182;2023-12-28T01:13:22;153998.84;;;7.69;77.58
38852;BME280;24605;50.092;9.182;2023-12-28T01:15:49;154007.94;;;7.73;77.98
38852;BME280;24605;50.092;9.182;2023-12-28T01:18:15;154028.75;;;7.81;77.48
38852;BME280;24605;50.092;9.182;2023-12-28T01:20:42;154030.03;;;7.81;76.84
38852;BME280;24605;50.092;9.182;2023-12-28T01:23:08;154044.34;;;7.87;77.10
38852;BME280;24605;50.092;9.182;2023-12-28T01:25:34;154066.47;;;7.96;76.53
38852;BME280;24605;50.092;9.182;2023-12-28T01:28:02;154097.69;;;8.08;75.37
38852;BME280;24605;50.092;9.182;2023-12-28T01:30:29;154119.81;;;8.17;74.96
38852;BME280;24605;50.092;9.182;2023-12-28T01:32:56;154126.31;;;8.20;74.64
38852;BME280;24605;50.092;9.182;2023-12-28T01:35:22;154135.44;;;8.23;73.96
38852;BME280;24605;50.092;9.182;2023-12-28T01:37:49;154152.34;;;8.30;73.89
38852;BME280;24605;50.092;9.182;2023-12-28T01:40:15;154177.06;;;8.40;73.47
38852;BME280;24605;50.092;9.182;2023-12-28T01:42:42;154181.00;;;8.41;74.44
38852;BME280;24605;50.092;9.182;2023-12-28T01:45:10;154199.25;;;8.49;73.21
38852;BME280;24605;50.092;9.182;2023-12-28T01:47:36;154209.66;;;8.53;73.26
38852;BME280;24605;50.092;9.182;2023-12-28T01:50:05;154221.38;;;8.57;73.86
38852;BME280;24605;50.092;9.182;2023-12-28T01:52:32;154222.69;;;8.58;73.88
38852;BME280;24605;50.092;9.182;2023-12-28T01:55:00;154233.06;;;8.62;74.63
38852;BME280;24605;50.092;9.182;2023-12-28T01:57:27;154229.19;;;8.60;73.50
38852;BME280;24605;50.092;9.182;2023-12-28T01:59:54;154210.97;;;8.53;73.08
38852;BME280;24605;50.092;9.182;2023-12-28T02:02:22;154244.78;;;8.67;73.05
38852;BME280;24605;50.092;9.182;2023-12-28T02:04:49;154250.00;;;8.69;73.35
38852;BME280;24605;50.092;9.182;2023-12-28T02:07:16;154237.03;;;8.64;73.58
38852;BME280;24605;50.092;9.182;2023-12-28T02:09:42;154251.28;;;8.69;74.12
38852;BME280;24605;50.092;9.182;2023-12-28T02:12:09;154240.91;;;8.65;75.17
38852;BME280;24605;50.092;9.182;2023-12-28T02:14:35;154243.50;;;8.66;74.41
38852;BME280;24605;50.092;9.182;2023-12-28T02:17:04;154242.19;;;8.66;75.49
38852;BME280;24605;50.092;9.182;2023-12-28T02:19:40;154244.78;;;8.67;74.74
38852;BME280;24605;50.092;9.182;2023-12-28T02:22:07;154265.63;;;8.75;74.99
38852;BME280;24605;50.092;9.182;2023-12-28T02:24:54;154266.94;;;8.75;75.53
38852;BME280;24605;50.092;9.182;2023-12-28T02:27:20;154264.34;;;8.74;77.61
38852;BME280;24605;50.092;9.182;2023-12-28T02:29:47;154244.78;;;8.67;79.71
38852;BME280;24605;50.092;9.182;2023-12-28T02:32:14;154244.78;;;8.67;78.06
38852;BME280;24605;50.092;9.182;2023-12-28T02:34:44;154256.50;;;8.71;78.74
38852;BME280;24605;50.092;9.182;2023-12-28T02:37:13;154260.41;;;8.73;78.83
38852;BME280;24605;50.092;9.182;2023-12-28T02:39:44;154266.94;;;8.75;78.44
38852;BME280;24605;50.092;9.182;2023-12-28T02:42:14;154270.84;;;8.77;78.57
38852;BME280;24605;50.092;9.182;2023-12-28T02:44:40;154281.28;;;8.81;78.74
38852;BME280;24605;50.092;9.182;2023-12-28T02:47:07;154264.34;;;8.74;79.47
38852;BME280;24605;50.092;9.182;2023-12-28T02:49:33;154285.16;;;8.83;79.42
38852;BME280;24605;50.092;9.182;2023-12-28T02:52:00;154263.00;;;8.74;79.45
38852;BME280;24605;50.092;9.182;2023-12-28T02:54:26;154260.41;;;8.73;79.75
38852;BME280;24605;50.092;9.182;2023-12-28T02:56:52;154260.41;;;8.73;80.30
38852;BME280;24605;50.092;9.182;2023-12-28T02:59:20;154264.34;;;8.74;80.98
38852;BME280;24605;50.092;9.182;2023-12-28T03:01:47;154259.13;;;8.72;80.59
38852;BME280;24605;50.092;9.182;2023-12-28T03:04:13;154255.22;;;8.71;81.50
38852;BME280;24605;50.092;9.182;2023-12-28T03:06:40;154268.22;;;8.76;82.79
38852;BME280;24605;50.092;9.182;2023-12-28T03:09:07;154244.78;;;8.67;84.19
38852;BME280;24605;50.092;9.182;2023-12-28T03:11:33;154242.19;;;8.66;84.38
38852;BME280;24605;50.092;9.182;2023-12-28T03:14:00;154244.78;;;8.67;84.76
38852;BME280;24605;50.092;9.182;2023-12-28T03:16:28;154237.03;;;8.64;86.04
38852;BME280;24605;50.092;9.182;2023-12-28T03:18:54;154242.19;;;8.66;86.75
38852;BME280;24605;50.092;9.182;2023-12-28T03:21:21;154231.81;;;8.61;87.29
38852;BME280;24605;50.092;9.182;2023-12-28T03:23:47;154220.09;;;8.57;87.40
38852;BME280;24605;50.092;9.182;2023-12-28T03:26:13;154207.03;;;8.52;88.98
38852;BME280;24605;50.092;9.182;2023-12-28T03:28:40;154188.78;;;8.44;89.34
38852;BME280;24605;50.092;9.182;2023-12-28T03:31:06;154197.94;;;8.48;90.45
38852;BME280;24605;50.092;9.182;2023-12-28T03:33:34;154186.16;;;8.43;91.80
38852;BME280;24605;50.092;9.182;2023-12-28T03:36:00;154164.06;;;8.35;94.10
38852;BME280;24605;50.092;9.182;2023-12-28T03:38:27;154122.44;;;8.18;97.39
38852;BME280;24605;50.092;9.182;2023-12-28T03:40:54;154071.66;;;7.98;100.00
38852;BME280;24605;50.092;9.182;2023-12-28T03:43:20;154023.53;;;7.79;100.00
38852;BME280;24605;50.092;9.182;2023-12-28T03:45:46;153961.09;;;7.54;100.00
38852;BME280;24605;50.092;9.182;2023-12-28T03:48:12;153903.91;;;7.31;100.00
38852;BME280;24605;50.092;9.182;2023-12-28T03:50:40;153876.56;;;7.20;100.00
38852;BME280;24605;50.092;9.182;2023-12-28T03:53:06;153846.66;;;7.09;100.00
38852;BME280;24605;50.092;9.182;2023-12-28T03:55:33;153828.47;;;7.01;100.00
38852;BME280;24605;50.092;9.182;2023-12-28T03:57:59;153816.75;;;6.97;100.00
38852;BME280;24605;50.092;9.182;2023-12-28T04:00:26;153823.25;;;6.99;100.00
38852;BME280;24605;50.092;9.182;2023-12-28T04:02:52;153828.47;;;7.01;100.00
38852;BME280;24605;50.092;9.182;2023-12-28T04:05:18;153821.97;;;6.99;100.00
38852;BME280;24605;50.092;9.182;2023-12-28T04:07:46;153850.53;;;7.10;100.00
38852;BME280;24605;50.092;9.182;2023-12-28T04:10:13;153836.28;;;7.04;100.00
38852;BME280;24605;50.092;9.182;2023-12-28T04:12:39;153844.06;;;7.08;100.00
38852;BME280;24605;50.092;9.182;2023-12-28T04:15:06;153851.88;;;7.11;100.00
38852;BME280;24605;50.092;9.182;2023-12-28T04:17:33;153862.25;;;7.15;100.00
38852;BME280;24605;50.092;9.182;2023-12-28T04:19:59;153821.97;;;6.99;100.00
38852;BME280;24605;50.092;9.182;2023-12-28T04:22:26;153866.19;;;7.16;100.00
38852;BME280;24605;50.092;9.182;2023-12-28T04:24:53;153885.66;;;7.24;100.00
38852;BME280;24605;50.092;9.182;2023-12-28T04:27:20;153888.25;;;7.25;100.00
38852;BME280;24605;50.092;9.182;2023-12-28T04:29:46;153899.97;;;7.30;100.00
38852;BME280;24605;50.092;9.182;2023-12-28T04:32:13;153886.97;;;7.25;100.00
38852;BME280;24605;50.092;9.182;2023-12-28T04:34:40;153916.88;;;7.36;100.00
38852;BME280;24605;50.092;9.182;2023-12-28T04:37:07;153913.00;;;7.35;100.00
38852;BME280;24605;50.092;9.182;2023-12-28T04:39:33;153909.06;;;7.33;100.00
38852;BME280;24605;50.092;9.182;2023-12-28T04:42:02;153876.56;;;7.20;100.00
38852;BME280;24605;50.092;9.182;2023-12-28T04:44:28;153901.28;;;7.30;100.00
38852;BME280;24605;50.092;9.182;2023-12-28T04:46:54;153832.34;;;7.03;100.00
38852;BME280;24605;50.092;9.182;2023-12-28T04:49:21;153864.84;;;7.16;100.00
38852;BME280;24605;50.092;9.182;2023-12-28T04:51:47;153866.19;;;7.16;100.00
38852;BME280;24605;50.092;9.182;2023-12-28T04:54:14;153851.88;;;7.11;100.00
38852;BME280;24605;50.092;9.182;2023-12-28T04:56:40;153781.66;;;6.83;100.00
38852;BME280;24605;50.092;9.182;2023-12-28T04:59:08;153879.16;;;7.21;100.00
38852;BME280;24605;50.092;9.182;2023-12-28T05:01:40;153888.25;;;7.25;100.00
38852;BME280;24605;50.092;9.182;2023-12-28T05:04:06;153894.75;;;7.28;100.00
38852;BME280;24605;50.092;9.182;2023-12-28T05:06:33;153888.25;;;7.25;100.00
38852;BME280;24605;50.092;9.182;2023-12-28T05:08:59;153885.66;;;7.24;100.00
38852;BME280;24605;50.092;9.182;2023-12-28T05:11:26;153872.66;;;7.19;100.00
38852;BME280;24605;50.092;9.182;2023-12-28T05:13:52;153877.88;;;7.21;100.00
38852;BME280;24605;50.092;9.182;2023-12-28T05:16:20;153880.50;;;7.22;100.00
38852;BME280;24605;50.092;9.182;2023-12-28T05:18:47;153922.09;;;7.39;100.00
38852;BME280;24605;50.092;9.182;2023-12-28T05:21:13;153913.00;;;7.35;100.00
38852;BME280;24605;50.092;9.182;2023-12-28T05:23:40;153941.56;;;7.46;100.00
38852;BME280;24605;50.092;9.182;2023-12-28T05:26:07;153925.97;;;7.40;100.00
38852;BME280;24605;50.092;9.182;2023-12-28T05:28:33;153944.19;;;7.47;100.00
38852;BME280;24605;50.092;9.182;2023-12-28T05:30:59;153941.56;;;7.46;100.00
38852;BME280;24605;50.092;9.182;2023-12-28T05:33:27;153957.22;;;7.52;100.00
38852;BME280;24605;50.092;9.182;2023-12-28T05:35:54;153963.72;;;7.55;100.00
38852;BME280;24605;50.092;9.182;2023-12-28T05:38:20;153971.47;;;7.58;100.00
38852;BME280;24605;50.092;9.182;2023-12-28T05:40:46;153959.81;;;7.53;100.00
38852;BME280;24605;50.092;9.182;2023-12-28T05:43:13;153925.97;;;7.40;100.00
38852;BME280;24605;50.092;9.182;2023-12-28T05:45:39;153950.69;;;7.50;100.00
38852;BME280;24605;50.092;9.182;2023-12-28T05:48:06;153946.78;;;7.48;100.00
38852;BME280;24605;50.092;9.182;2023-12-28T05:50:33;153940.28;;;7.46;100.00
38852;BME280;24605;50.092;9.182;2023-12-28T05:53:00;153940.28;;;7.46;100.00
38852;BME280;24605;50.092;9.182;2023-12-28T05:55:27;153940.28;;;7.46;100.00
38852;BME280;24605;50.092;9.182;2023-12-28T05:57:54;153937.69;;;7.45;100.00
38852;BME280;24605;50.092;9.182;2023-12-28T06:00:20;153931.19;;;7.42;100.00
38852;BME280;24605;50.092;9.182;2023-12-28T06:02:47;153942.91;;;7.47;100.00
38852;BME280;24605;50.092;9.182;2023-12-28T06:05:16;153922.09;;;7.39;100.00
38852;BME280;24605;50.092;9.182;2023-12-28T06:07:44;153938.97;;;7.45;100.00
38852;BME280;24605;50.092;9.182;2023-12-28T06:10:10;153928.59;;;7.41;100.00
38852;BME280;24605;50.092;9.182;2023-12-28T06:12:37;153937.69;;;7.45;100.00
38852;BME280;24605;50.092;9.182;2023-12-28T06:15:04;153936.41;;;7.44;100.00
38852;BME280;24605;50.092;9.182;2023-12-28T06:17:31;153928.59;;;7.41;100.00
38852;BME280;24605;50.092;9.182;2023-12-28T06:19:57;153928.59;;;7.41;100.00
38852;BME280;24605;50.092;9.182;2023-12-28T06:22:24;153936.41;;;7.44;100.00
38852;BME280;24605;50.092;9.182;2023-12-28T06:24:54;153929.88;;;7.42;100.00
38852;BME280;24605;50.092;9.182;2023-12-28T06:27:20;153949.41;;;7.49;100.00
38852;BME280;24605;50.092;9.182;2023-12-28T06:29:47;153940.28;;;7.46;100.00
38852;BME280;24605;50.092;9.182;2023-12-28T06:32:14;153933.81;;;7.43;100.00
38852;BME280;24605;50.092;9.182;2023-12-28T06:34:40;153936.41;;;7.44;100.00
38852;BME280;24605;50.092;9.182;2023-12-28T06:37:07;153931.19;;;7.42;100.00
38852;BME280;24605;50.092;9.182;2023-12-28T06:39:33;153938.97;;;7.45;100.00
38852;BME280;24605;50.092;9.182;2023-12-28T06:42:01;153944.19;;;7.47;100.00
38852;BME280;24605;50.092;9.182;2023-12-28T06:44:27;153924.72;;;7.40;100.00
38852;BME280;24605;50.092;9.182;2023-12-28T06:46:54;153968.94;;;7.57;100.00
38852;BME280;24605;50.092;9.182;2023-12-28T06:49:20;153972.81;;;7.59;100.00
38852;BME280;24605;50.092;9.182;2023-12-28T06:51:46;153953.28;;;7.51;100.00
38852;BME280;24605;50.092;9.182;2023-12-28T06:54:13;153945.50;;;7.48;100.00
38852;BME280;24605;50.092;9.182;2023-12-28T06:56:40;153940.28;;;7.46;100.00
38852;BME280;24605;50.092;9.182;2023-12-28T06:59:08;153938.97;;;7.45;100.00
38852;BME280;24605;50.092;9.182;2023-12-28T07:01:37;153971.47;;;7.58;100.00
38852;BME280;24605;50.092;9.182;2023-12-28T07:04:03;153967.59;;;7.57;100.00
38852;BME280;24605;50.092;9.182;2023-12-28T07:06:30;153988.41;;;7.65;100.00
38852;BME280;24605;50.092;9.182;2023-12-28T07:08:56;154009.22;;;7.73;100.00
38852;BME280;24605;50.092;9.182;2023-12-28T07:11:23;154022.25;;;7.78;100.00
38852;BME280;24605;50.092;9.182;2023-12-28T07:13:49;154007.94;;;7.73;100.00
38852;BME280;24605;50.092;9.182;2023-12-28T07:16:17;154004.06;;;7.71;100.00
38852;BME280;24605;50.092;9.182;2023-12-28T07:18:44;154020.91;;;7.78;100.00
38852;BME280;24605;50.092;9.182;2023-12-28T07:21:10;154005.31;;;7.72;100.00
38852;BME280;24605;50.092;9.182;2023-12-28T07:23:36;153974.09;;;7.59;100.00
38852;BME280;24605;50.092;9.182;2023-12-28T07:26:03;153989.72;;;7.65;100.00
38852;BME280;24605;50.092;9.182;2023-12-28T07:28:30;154006.59;;;7.72;100.00
38852;BME280;24605;50.092;9.182;2023-12-28T07:30:57;154002.72;;;7.71;100.00
38852;BME280;24605;50.092;9.182;2023-12-28T07:33:25;154026.13;;;7.80;100.00
38852;BME280;24605;50.092;9.182;2023-12-28T07:35:52;154057.38;;;7.92;100.00
38852;BME280;24605;50.092;9.182;2023-12-28T07:38:18;154035.25;;;7.83;100.00
38852;BME280;24605;50.092;9.182;2023-12-28T07:40:44;154039.13;;;7.85;100.00
38852;BME280;24605;50.092;9.182;2023-12-28T07:43:11;154049.56;;;7.89;100.00
38852;BME280;24605;50.092;9.182;2023-12-28T07:45:37;154062.53;;;7.94;100.00
38852;BME280;24605;50.092;9.182;2023-12-28T07:48:05;154071.66;;;7.98;100.00
38852;BME280;24605;50.092;9.182;2023-12-28T07:50:33;154069.09;;;7.97;100.00
38852;BME280;24605;50.092;9.182;2023-12-28T07:52:59;154076.88;;;8.00;100.00
38852;BME280;24605;50.092;9.182;2023-12-28T07:55:25;154106.78;;;8.12;100.00
38852;BME280;24605;50.092;9.182;2023-12-28T07:57:52;154101.63;;;8.10;100.00
38852;BME280;24605;50.092;9.182;2023-12-28T08:00:19;154087.31;;;8.04;100.00
38852;BME280;24605;50.092;9.182;2023-12-28T08:02:45;154087.31;;;8.04;100.00
38852;BME280;24605;50.092;9.182;2023-12-28T08:05:11;154067.75;;;7.96;100.00
38852;BME280;24605;50.092;9.182;2023-12-28T08:07:39;154066.47;;;7.96;100.00
38852;BME280;24605;50.092;9.182;2023-12-28T08:10:06;154076.88;;;8.00;100.00
38852;BME280;24605;50.092;9.182;2023-12-28T08:12:33;154104.22;;;8.11;100.00
38852;BME280;24605;50.092;9.182;2023-12-28T08:14:59;154082.09;;;8.02;100.00
38852;BME280;24605;50.092;9.182;2023-12-28T08:17:26;154097.69;;;8.08;100.00
38852;BME280;24605;50.092;9.182;2023-12-28T08:19:52;154108.13;;;8.12;100.00
38852;BME280;24605;50.092;9.182;2023-12-28T08:22:19;154122.44;;;8.18;100.00
38852;BME280;24605;50.092;9.182;2023-12-28T08:24:47;154130.22;;;8.21;100.00
38852;BME280;24605;50.092;9.182;2023-12-28T08:27:13;154113.31;;;8.14;100.00
38852;BME280;24605;50.092;9.182;2023-12-28T08:29:40;153992.34;;;7.66;100.00
38852;BME280;24605;50.092;9.182;2023-12-28T08:32:07;154122.44;;;8.18;100.00
38852;BME280;24605;50.092;9.182;2023-12-28T08:34:34;154113.31;;;8.14;100.00
38852;BME280;24605;50.092;9.182;2023-12-28T08:37:00;154156.25;;;8.31;100.00
38852;BME280;24605;50.092;9.182;2023-12-28T08:39:27;154130.22;;;8.21;100.00
38852;BME280;24605;50.092;9.182;2023-12-28T08:41:55;154144.53;;;8.27;100.00
38852;BME280;24605;50.092;9.182;2023-12-28T08:44:22;154143.25;;;8.26;100.00
38852;BME280;24605;50.092;9.182;2023-12-28T08:46:48;154121.09;;;8.18;100.00
38852;BME280;24605;50.092;9.182;2023-12-28T08:49:15;154136.75;;;8.24;100.00
38852;BME280;24605;50.092;9.182;2023-12-28T08:51:41;154105.50;;;8.11;100.00
38852;BME280;24605;50.092;9.182;2023-12-28T08:54:09;154153.63;;;8.30;100.00
38852;BME280;24605;50.092;9.182;2023-12-28T08:56:36;154138.03;;;8.24;100.00
38852;BME280;24605;50.092;9.182;2023-12-28T08:59:03;154147.13;;;8.28;100.00
38852;BME280;24605;50.092;9.182;2023-12-28T09:01:30;154183.56;;;8.42;100.00
38852;BME280;24605;50.092;9.182;2023-12-28T09:03:55;154178.41;;;8.40;100.00
38852;BME280;24605;50.092;9.182;2023-12-28T09:06:22;154161.47;;;8.34;100.00
38852;BME280;24605;50.092;9.182;2023-12-28T09:08:50;154144.53;;;8.27;100.00
38852;BME280;24605;50.092;9.182;2023-12-28T09:11:17;154106.78;;;8.12;100.00
38852;BME280;24605;50.092;9.182;2023-12-28T09:13:44;154106.78;;;8.12;100.00
38852;BME280;24605;50.092;9.182;2023-12-28T09:16:13;154105.50;;;8.11;100.00
38852;BME280;24605;50.092;9.182;2023-12-28T09:18:40;154119.81;;;8.17;100.00
38852;BME280;24605;50.092;9.182;2023-12-28T09:21:08;154113.31;;;8.14;100.00
38852;BME280;24605;50.092;9.182;2023-12-28T09:23:35;154065.16;;;7.95;100.00
38852;BME280;24605;50.092;9.182;2023-12-28T09:26:03;154092.50;;;8.06;100.00
38852;BME280;24605;50.092;9.182;2023-12-28T09:28:30;154100.28;;;8.09;100.00
38852;BME280;24605;50.092;9.182;2023-12-28T09:30:57;154117.22;;;8.16;100.00
38852;BME280;24605;50.092;9.182;2023-12-28T09:33:25;154125.03;;;8.19;100.00
38852;BME280;24605;50.092;9.182;2023-12-28T09:35:51;154125.03;;;8.19;100.00
38852;BME280;24605;50.092;9.182;2023-12-28T09:38:18;154110.72;;;8.13;100.00
38852;BME280;24605;50.092;9.182;2023-12-28T09:40:45;154143.25;;;8.26;100.00
38852;BME280;24605;50.092;9.182;2023-12-28T09:43:13;154127.59;;;8.20;100.00
38852;BME280;24605;50.092;9.182;2023-12-28T09:45:41;154114.59;;;8.15;100.00
38852;BME280;24605;50.092;9.182;2023-12-28T09:48:08;154122.44;;;8.18;100.00
38852;BME280;24605;50.092;9.182;2023-12-28T09:50:37;154117.22;;;8.16;100.00
38852;BME280;24605;50.092;9.182;2023-12-28T09:53:03;154122.44;;;8.18;100.00
38852;BME280;24605;50.092;9.182;2023-12-28T09:55:29;154106.78;;;8.12;100.00
38852;BME280;24605;50.092;9.182;2023-12-28T09:57:57;154115.88;;;8.15;100.00
38852;BME280;24605;50.092;9.182;2023-12-28T10:00:26;154122.44;;;8.18;100.00
38852;BME280;24605;50.092;9.182;2023-12-28T10:02:53;154078.19;;;8.00;100.00
38852;BME280;24605;50.092;9.182;2023-12-28T10:05:19;154125.03;;;8.19;100.00
38852;BME280;24605;50.092;9.182;2023-12-28T10:07:47;154099.00;;;8.09;100.00
38852;BME280;24605;50.092;9.182;2023-12-28T10:10:14;154091.19;;;8.06;100.00
38852;BME280;24605;50.092;9.182;2023-12-28T10:12:41;154093.78;;;8.07;100.00
38852;BME280;24605;50.092;9.182;2023-12-28T10:15:08;154091.19;;;8.06;100.00
38852;BME280;24605;50.092;9.182;2023-12-28T10:17:35;154088.56;;;8.05;100.00
38852;BME280;24605;50.092;9.182;2023-12-28T10:20:02;154104.22;;;8.11;100.00
38852;BME280;24605;50.092;9.182;2023-12-28T10:22:30;154122.44;;;8.18;100.00
38852;BME280;24605;50.092;9.182;2023-12-28T10:24:58;154085.97;;;8.04;100.00
38852;BME280;24605;50.092;9.182;2023-12-28T10:27:26;154132.81;;;8.22;100.00
38852;BME280;24605;50.092;9.182;2023-12-28T10:29:53;154161.47;;;8.34;100.00
38852;BME280;24605;50.092;9.182;2023-12-28T10:32:20;154171.84;;;8.38;100.00
38852;BME280;24605;50.092;9.182;2023-12-28T10:34:48;154197.94;;;8.48;100.00
38852;BME280;24605;50.092;9.182;2023-12-28T10:37:16;154227.84;;;8.60;100.00
38852;BME280;24605;50.092;9.182;2023-12-28T10:39:46;154259.13;;;8.72;100.00
38852;BME280;24605;50.092;9.182;2023-12-28T10:42:20;154233.06;;;8.62;100.00
38852;BME280;24605;50.092;9.182;2023-12-28T10:44:52;154281.28;;;8.81;100.00
38852;BME280;24605;50.092;9.182;2023-12-28T10:47:22;154286.44;;;8.83;100.00
38852;BME280;24605;50.092;9.182;2023-12-28T10:49:53;154273.44;;;8.78;100.00
38852;BME280;24605;50.092;9.182;2023-12-28T10:52:26;154302.09;;;8.89;100.00
38852;BME280;24605;50.092;9.182;2023-12-28T10:55:00;154312.50;;;8.93;100.00
38852;BME280;24605;50.092;9.182;2023-12-28T10:57:33;154289.06;;;8.84;100.00
38852;BME280;24605;50.092;9.182;2023-12-28T11:00:09;154242.19;;;8.66;100.00
38852;BME280;24605;50.092;9.182;2023-12-28T11:02:38;154296.88;;;8.87;100.00
38852;BME280;24605;50.092;9.182;2023-12-28T11:05:07;154311.22;;;8.93;100.00
38852;BME280;24605;50.092;9.182;2023-12-28T11:07:35;154293.00;;;8.86;100.00
38852;BME280;24605;50.092;9.182;2023-12-28T11:10:05;154268.22;;;8.76;100.00
38852;BME280;24605;50.092;9.182;2023-12-28T11:12:33;154240.91;;;8.65;100.00
38852;BME280;24605;50.092;9.182;2023-12-28T11:15:01;154260.41;;;8.73;100.00
38852;BME280;24605;50.092;9.182;2023-12-28T11:17:30;154270.84;;;8.77;100.00
38852;BME280;24605;50.092;9.182;2023-12-28T11:19:58;154276.06;;;8.79;100.00
38852;BME280;24605;50.092;9.182;2023-12-28T11:22:25;154242.19;;;8.66;100.00
38852;BME280;24605;50.092;9.182;2023-12-28T11:24:52;154268.22;;;8.76;100.00
38852;BME280;24605;50.092;9.182;2023-12-28T11:27:19;154242.19;;;8.66;100.00
38852;BME280;24605;50.092;9.182;2023-12-28T11:29:49;154197.94;;;8.48;100.00
38852;BME280;24605;50.092;9.182;2023-12-28T11:32:19;154174.47;;;8.39;100.00
38852;BME280;24605;50.092;9.182;2023-12-28T11:34:56;154149.75;;;8.29;100.00
38852;BME280;24605;50.092;9.182;2023-12-28T11:37:23;154151.03;;;8.29;100.00
38852;BME280;24605;50.092;9.182;2023-12-28T11:39:52;154165.34;;;8.35;100.00
38852;BME280;24605;50.092;9.182;2023-12-28T11:42:20;154174.47;;;8.39;100.00
38852;BME280;24605;50.092;9.182;2023-12-28T11:44:54;154190.09;;;8.45;100.00
38852;BME280;24605;50.092;9.182;2023-12-28T11:47:22;154149.75;;;8.29;100.00
38852;BME280;24605;50.092;9.182;2023-12-28T11:49:49;154174.47;;;8.39;100.00
38852;BME280;24605;50.092;9.182;2023-12-28T11:52:24;154156.25;;;8.31;100.00
38852;BME280;24605;50.092;9.182;2023-12-28T11:54:51;154153.63;;;8.30;100.00
38852;BME280;24605;50.092;9.182;2023-12-28T11:57:18;154148.47;;;8.28;100.00
38852;BME280;24605;50.092;9.182;2023-12-28T11:59:44;154152.34;;;8.30;100.00
38852;BME280;24605;50.092;9.182;2023-12-28T12:02:13;154119.81;;;8.17;100.00
38852;BME280;24605;50.092;9.182;2023-12-28T12:04:40;154157.56;;;8.32;100.00
38852;BME280;24605;50.092;9.182;2023-12-28T12:07:06;154134.16;;;8.23;100.00
38852;BME280;24605;50.092;9.182;2023-12-28T12:09:33;154152.34;;;8.30;100.00
38852;BME280;24605;50.092;9.182;2023-12-28T12:12:00;154157.56;;;8.32;100.00
38852;BME280;24605;50.092;9.182;2023-12-28T12:14:26;154156.25;;;8.31;100.00
38852;BME280;24605;50.092;9.182;2023-12-28T12:16:53;154169.28;;;8.37;100.00
38852;BME280;24605;50.092;9.182;2023-12-28T12:19:22;154181.00;;;8.41;100.00
38852;BME280;24605;50.092;9.182;2023-12-28T12:21:51;154194.00;;;8.46;100.00
38852;BME280;24605;50.092;9.182;2023-12-28T12:24:18;154231.81;;;8.61;100.00
38852;BME280;24605;50.092;9.182;2023-12-28T12:26:45;154218.75;;;8.56;100.00
38852;BME280;24605;50.092;9.182;2023-12-28T12:29:11;154239.56;;;8.65;100.00
38852;BME280;24605;50.092;9.182;2023-12-28T12:31:38;154268.22;;;8.76;100.00
38852;BME280;24605;50.092;9.182;2023-12-28T12:34:07;154263.00;;;8.74;100.00
38852;BME280;24605;50.092;9.182;2023-12-28T12:36:35;154250.00;;;8.69;100.00
38852;BME280;24605;50.092;9.182;2023-12-28T12:39:02;154269.56;;;8.76;100.00
38852;BME280;24605;50.092;9.182;2023-12-28T12:41:30;154256.50;;;8.71;100.00
38852;BME280;24605;50.092;9.182;2023-12-28T12:43:56;154251.28;;;8.69;100.00
38852;BME280;24605;50.092;9.182;2023-12-28T12:46:24;154250.00;;;8.69;100.00
38852;BME280;24605;50.092;9.182;2023-12-28T12:48:55;154242.19;;;8.66;100.00
38852;BME280;24605;50.092;9.182;2023-12-28T12:51:21;154274.72;;;8.78;100.00
38852;BME280;24605;50.092;9.182;2023-12-28T12:53:49;154298.16;;;8.88;100.00